createdAt,value
2023-02-13T00:01:03.628Z,101733.15
2023-02-13T00:05:54.346Z,101733.77
2023-02-13T00:08:22.242Z,101732.65
2023-02-13T00:10:50.056Z,101734.65
2023-02-13T00:13:17.976Z,101732.46
2023-02-13T00:15:55.943Z,101725.94
2023-02-13T00:18:23.898Z,101724.96
2023-02-13T00:21:01.652Z,101717.73
2023-02-13T00:23:34.899Z,101712.41
2023-02-13T00:26:12.201Z,101707.80
2023-02-13T00:28:43.719Z,101711.23
2023-02-13T00:31:13.520Z,101705.91
2023-02-13T00:33:45.417Z,101704.26
2023-02-13T00:36:15.165Z,101706.40
2023-02-13T00:38:43.948Z,101707.16
2023-02-13T00:41:13.145Z,101704.97
2023-02-13T00:43:41.213Z,101696.67
2023-02-13T00:46:09.793Z,101693.94
2023-02-13T00:48:38.026Z,101688.61
2023-02-13T00:51:07.229Z,101686.56
2023-02-13T00:53:35.621Z,101690.08
2023-02-13T00:56:04.196Z,101687.87
2023-02-13T00:58:34.995Z,101689.80
2023-02-13T01:01:03.297Z,101685.47
2023-02-13T01:03:31.333Z,101685.83
2023-02-13T01:06:00.343Z,101686.20
2023-02-13T01:08:28.593Z,101680.15
2023-02-13T01:10:57.512Z,101677.73
2023-02-13T01:13:26.495Z,101674.11
2023-02-13T01:15:59.729Z,101672.93
2023-02-13T01:18:30.879Z,101671.92
2023-02-13T01:21:04.064Z,101667.41
2023-02-13T01:23:33.162Z,101665.52
2023-02-13T01:26:01.058Z,101661.17
2023-02-13T01:28:29.428Z,101660.84
2023-02-13T01:30:58.774Z,101658.23
2023-02-13T01:33:28.739Z,101658.59
2023-02-13T01:35:56.932Z,101659.45
2023-02-13T01:38:25.790Z,101658.75
2023-02-13T01:40:55.269Z,101661.36
2023-02-13T01:43:46.376Z,101657.01
2023-02-13T01:46:18.324Z,101646.75
2023-02-13T01:48:46.972Z,101641.55
2023-02-13T01:51:22.192Z,101642.77
2023-02-13T01:54:05.950Z,101646.05
2023-02-13T01:56:37.765Z,101647.77
2023-02-13T01:59:09.633Z,101642.36
2023-02-13T02:01:44.587Z,101640.43
2023-02-13T02:04:18.873Z,101637.99
2023-02-13T02:06:53.443Z,101640.08
2023-02-13T02:09:30.138Z,101635.71
2023-02-13T02:12:09.685Z,101632.40
2023-02-13T02:14:43.979Z,101626.65
2023-02-13T02:17:12.784Z,101622.47
2023-02-13T02:20:05.702Z,101620.21
2023-02-13T02:22:52.891Z,101615.84
2023-02-13T02:25:33.415Z,101616.85
2023-02-13T02:28:11.057Z,101618.92
2023-02-13T02:30:43.273Z,101620.31
2023-02-13T02:33:13.954Z,101618.55
2023-02-13T02:35:54.078Z,101614.19
2023-02-13T02:38:38.764Z,101608.27
2023-02-13T02:41:39.037Z,101607.38
2023-02-13T02:44:12.742Z,101607.70
2023-02-13T02:47:23.833Z,101610.11
2023-02-13T02:50:12.607Z,101610.96
2023-02-13T02:52:56.068Z,101611.99
2023-02-13T02:55:40.868Z,101616.14
2023-02-13T02:58:39.147Z,101616.13
2023-02-13T03:01:28.600Z,101622.67
2023-02-13T03:04:21.755Z,101620.72
2023-02-13T03:06:51.716Z,101615.98
2023-02-13T03:09:42.554Z,101612.95
2023-02-13T03:12:29.314Z,101611.81
2023-02-13T03:14:57.207Z,101607.54
2023-02-13T03:17:43.800Z,101603.77
2023-02-13T03:20:57.964Z,101604.57
2023-02-13T03:23:34.042Z,101598.35
2023-02-13T03:26:33.391Z,101592.72
2023-02-13T03:29:30.259Z,101590.39
2023-02-13T03:32:07.898Z,101589.44
2023-02-13T03:34:56.867Z,101592.52
2023-02-13T03:37:49.441Z,101586.02
2023-02-13T03:41:00.018Z,101582.14
2023-02-13T03:43:30.111Z,101574.59
2023-02-13T03:45:58.158Z,101570.57
2023-02-13T03:48:48.578Z,101570.19
2023-02-13T03:51:21.858Z,101568.73
2023-02-13T03:53:52.193Z,101562.60
2023-02-13T03:56:39.385Z,101561.33
2023-02-13T03:59:17.789Z,101560.06
2023-02-13T04:02:09.633Z,101555.11
2023-02-13T04:04:50.797Z,101553.11
2023-02-13T04:07:32.136Z,101555.14
2023-02-13T04:10:20.783Z,101557.14
2023-02-13T04:13:08.928Z,101553.56
2023-02-13T04:15:39.416Z,101546.66
2023-02-13T04:18:28.315Z,101537.73
2023-02-13T04:20:56.424Z,101535.40
2023-02-13T04:23:24.952Z,101534.27
2023-02-13T04:25:54.280Z,101528.42
2023-02-13T04:28:23.536Z,101523.05
2023-02-13T04:30:51.814Z,101527.79
2023-02-13T04:33:20.940Z,101528.87
2023-02-13T04:35:49.016Z,101530.65
2023-02-13T04:38:17.653Z,101531.41
2023-02-13T04:40:45.761Z,101526.58
2023-02-13T04:43:14.208Z,101519.65
2023-02-13T04:45:43.535Z,101516.70
2023-02-13T04:48:11.704Z,101515.20
2023-02-13T04:50:40.185Z,101509.66
2023-02-13T04:53:08.180Z,101510.06
2023-02-13T04:55:37.421Z,101523.18
2023-02-13T04:58:06.372Z,101523.92
2023-02-13T05:00:34.304Z,101521.52
2023-02-13T05:03:06.886Z,101519.33
2023-02-13T05:05:35.469Z,101518.39
2023-02-13T05:08:06.758Z,101517.98
2023-02-13T05:10:35.322Z,101514.07
2023-02-13T05:13:07.518Z,101516.95
2023-02-13T05:15:35.629Z,101516.48
2023-02-13T05:18:03.840Z,101517.96
2023-02-13T05:20:32.600Z,101519.50
2023-02-13T05:23:19.089Z,101518.74
2023-02-13T05:25:47.180Z,101519.34
2023-02-13T05:28:34.048Z,101517.72
2023-02-13T05:31:02.584Z,101517.77
2023-02-13T05:33:30.901Z,101519.09
2023-02-13T05:35:58.780Z,101520.59
2023-02-13T05:38:26.912Z,101519.60
2023-02-13T05:40:55.812Z,101522.81
2023-02-13T05:43:24.062Z,101520.13
2023-02-13T05:46:01.874Z,101522.49
2023-02-13T05:48:29.908Z,101522.92
2023-02-13T05:50:58.228Z,101528.81
2023-02-13T05:53:26.499Z,101529.62
2023-02-13T05:55:54.347Z,101533.19
2023-02-13T05:58:22.505Z,101533.28
2023-02-13T06:01:00.781Z,101527.60
2023-02-13T06:03:30.479Z,101525.45
2023-02-13T06:06:00.201Z,101521.68
2023-02-13T06:08:28.564Z,101512.45
2023-02-13T06:10:56.737Z,101502.23
2023-02-13T06:13:24.703Z,101499.86
2023-02-13T06:15:52.997Z,101498.70
2023-02-13T06:18:21.939Z,101499.34
2023-02-13T06:20:49.925Z,101497.69
2023-02-13T06:23:18.175Z,101495.26
2023-02-13T06:25:46.680Z,101494.48
2023-02-13T06:28:14.586Z,101490.85
2023-02-13T06:30:42.960Z,101491.38
2023-02-13T06:33:13.432Z,101484.80
2023-02-13T06:35:42.276Z,101478.52
2023-02-13T06:38:10.232Z,101472.48
2023-02-13T06:40:38.336Z,101470.45
2023-02-13T06:43:06.212Z,101467.83
2023-02-13T06:45:35.071Z,101465.88
2023-02-13T06:48:03.721Z,101469.17
2023-02-13T06:50:31.671Z,101474.79
2023-02-13T06:52:59.567Z,101476.15
2023-02-13T06:55:27.905Z,101474.51
2023-02-13T06:57:56.836Z,101470.82
2023-02-13T07:00:26.252Z,101471.33
2023-02-13T07:02:55.312Z,101469.77
2023-02-13T07:05:23.276Z,101473.11
2023-02-13T07:07:51.125Z,101466.27
2023-02-13T07:10:20.353Z,101467.63
2023-02-13T07:13:03.620Z,101460.88
2023-02-13T07:15:33.846Z,101460.26
2023-02-13T07:18:02.302Z,101452.99
2023-02-13T07:20:30.485Z,101451.91
2023-02-13T07:23:03.618Z,101448.17
2023-02-13T07:25:31.740Z,101442.54
2023-02-13T07:28:04.769Z,101439.17
2023-02-13T07:30:35.669Z,101439.01
2023-02-13T07:33:04.316Z,101431.16
2023-02-13T07:35:32.685Z,101427.59
2023-02-13T07:38:00.829Z,101423.98
2023-02-13T07:40:29.559Z,101426.09
2023-02-13T07:43:00.293Z,101422.41
2023-02-13T07:45:30.920Z,101424.45
2023-02-13T07:47:59.756Z,101421.39
2023-02-13T07:50:28.393Z,101419.27
2023-02-13T07:52:57.610Z,101412.59
2023-02-13T07:55:25.856Z,101414.66
2023-02-13T07:57:53.967Z,101415.02
2023-02-13T08:00:22.422Z,101414.94
2023-02-13T08:02:50.536Z,101415.42
2023-02-13T08:05:18.583Z,101419.48
2023-02-13T08:07:46.909Z,101416.56
2023-02-13T08:10:36.451Z,101412.75
2023-02-13T08:13:05.259Z,101413.45
2023-02-13T08:15:33.290Z,101416.04
2023-02-13T08:18:03.780Z,101413.45
2023-02-13T08:20:31.988Z,101422.36
2023-02-13T08:23:04.435Z,101415.14
2023-02-13T08:25:38.370Z,101416.59
2023-02-13T08:28:06.497Z,101411.67
2023-02-13T10:11:17.198Z,101310.23
2023-02-13T10:14:03.571Z,101312.88
2023-02-13T10:17:10.401Z,101305.11
2023-02-13T10:19:43.527Z,101304.92
2023-02-13T10:22:22.580Z,101304.91
2023-02-13T10:25:24.821Z,101292.76
2023-02-13T10:28:28.777Z,101287.39
2023-02-13T10:30:58.319Z,101283.26
2023-02-13T10:33:29.411Z,101284.20
2023-02-13T10:36:09.969Z,101276.65
2023-02-13T10:39:05.900Z,101268.83
2023-02-13T10:41:44.512Z,101259.68
2023-02-13T10:44:22.489Z,101259.13
2023-02-13T10:47:12.832Z,101251.69
2023-02-13T10:49:53.329Z,101248.84
2023-02-13T10:52:24.027Z,101243.76
2023-02-13T10:55:24.982Z,101242.38
2023-02-13T10:57:57.261Z,101234.27
2023-02-13T11:00:42.877Z,101238.75
2023-02-13T11:03:19.866Z,101236.06
2023-02-13T11:05:48.408Z,101234.65
2023-02-13T11:08:43.189Z,101240.64
2023-02-13T11:11:37.690Z,101237.52
2023-02-13T11:14:20.191Z,101234.56
2023-02-13T11:16:57.640Z,101237.13
2023-02-13T11:19:31.891Z,101234.38
2023-02-13T11:22:07.002Z,101233.17
2023-02-13T11:24:34.951Z,101232.48
2023-02-13T11:27:09.212Z,101235.28
2023-02-13T11:29:37.996Z,101234.20
2023-02-13T11:32:18.114Z,101229.28
2023-02-13T11:34:46.738Z,101223.80
2023-02-13T11:37:28.418Z,101224.45
2023-02-13T11:40:00.771Z,101230.02
2023-02-13T11:42:35.605Z,101230.98
2023-02-13T11:45:24.881Z,101229.70
2023-02-13T11:47:54.238Z,101227.67
2023-02-13T11:50:34.939Z,101223.90
2023-02-13T11:53:04.985Z,101221.01
2023-02-13T11:55:39.171Z,101217.84
2023-02-13T11:58:14.290Z,101213.65
2023-02-13T12:00:42.824Z,101209.09
2023-02-13T12:03:27.827Z,101197.05
2023-02-13T12:06:02.296Z,101196.91
2023-02-13T12:08:31.870Z,101190.27
2023-02-13T12:11:04.716Z,101186.89
2023-02-13T12:13:37.040Z,101186.61
2023-02-13T12:16:26.007Z,101187.13
2023-02-13T12:18:54.356Z,101184.80
2023-02-13T12:21:38.408Z,101172.80
2023-02-13T12:24:34.003Z,101171.29
2023-02-13T12:27:13.940Z,101173.60
2023-02-13T12:30:03.478Z,101174.55
2023-02-13T12:32:42.082Z,101173.59
2023-02-13T12:35:34.269Z,101173.12
2023-02-13T12:38:04.229Z,101174.09
2023-02-13T12:41:10.268Z,101178.06
2023-02-13T12:44:09.994Z,101180.79
2023-02-13T12:46:41.002Z,101184.09
2023-02-13T12:49:31.822Z,101173.77
2023-02-13T12:52:24.621Z,101165.29
2023-02-13T12:55:00.442Z,101160.80
2023-02-13T12:57:48.092Z,101158.02
2023-02-13T13:00:58.013Z,101158.13
2023-02-13T13:03:49.806Z,101155.11
2023-02-13T13:06:40.692Z,101150.95
2023-02-13T13:09:33.210Z,101149.38
2023-02-13T13:12:15.854Z,101146.02
2023-02-13T13:14:55.858Z,101140.48
2023-02-13T13:17:43.111Z,101137.45
2023-02-13T13:20:14.337Z,101133.62
2023-02-13T13:22:46.229Z,101128.20
2023-02-13T13:25:29.742Z,101117.23
2023-02-13T13:28:17.292Z,101117.06
2023-02-13T13:30:45.313Z,101113.57
2023-02-13T13:33:17.940Z,101115.94
2023-02-13T13:36:01.062Z,101119.35
2023-02-13T13:38:52.372Z,101122.53
2023-02-13T13:41:41.822Z,101127.16
2023-02-13T13:44:36.926Z,101128.27
2023-02-13T13:47:12.467Z,101130.59
2023-02-13T13:49:46.922Z,101133.83
2023-02-13T13:52:34.128Z,101136.58
2023-02-13T13:55:04.464Z,101124.94
2023-02-13T13:57:41.413Z,101126.13
2023-02-13T14:00:12.091Z,101114.87
2023-02-13T14:02:49.728Z,101108.31
2023-02-13T14:05:25.005Z,101106.36
2023-02-13T14:08:00.808Z,101105.29
2023-02-13T14:10:32.105Z,101101.98
2023-02-13T14:13:02.592Z,101104.31
2023-02-13T14:15:38.633Z,101098.58
2023-02-13T14:18:11.448Z,101100.21
2023-02-13T14:20:50.939Z,101096.10
2023-02-13T14:23:25.521Z,101090.91
2023-02-13T14:26:26.121Z,101089.55
2023-02-13T14:28:53.953Z,101080.35
2023-02-13T14:31:31.721Z,101082.73
2023-02-13T14:34:03.808Z,101073.27
2023-02-13T14:36:41.029Z,101071.77
2023-02-13T14:39:30.891Z,101073.60
2023-02-13T14:42:00.244Z,101070.45
2023-02-13T14:44:38.102Z,101062.11
2023-02-13T14:47:14.974Z,101058.17
2023-02-13T14:49:44.015Z,101058.08
2023-02-13T14:52:18.652Z,101050.91
2023-02-13T14:54:49.366Z,101046.64
2023-02-13T14:57:23.043Z,101044.27
2023-02-13T14:59:58.292Z,101045.12
2023-02-13T15:02:27.320Z,101054.81
2023-02-13T15:04:58.245Z,101058.73
2023-02-13T15:07:27.864Z,101055.77
2023-02-13T15:10:00.236Z,101053.97
2023-02-13T15:12:35.855Z,101056.98
2023-02-13T15:15:22.783Z,101052.13
2023-02-13T15:18:03.942Z,101051.45
2023-02-13T15:20:34.195Z,101046.32
2023-02-13T15:23:02.064Z,101044.86
2023-02-13T15:25:36.337Z,101047.90
2023-02-13T15:28:05.951Z,101052.16
2023-02-13T15:30:36.508Z,101056.32
2023-02-13T15:33:18.456Z,101051.41
2023-02-13T15:35:46.472Z,101050.47
2023-02-13T15:38:36.500Z,101047.48
2023-02-13T15:41:05.350Z,101045.96
2023-02-13T15:43:35.453Z,101044.80
2023-02-13T15:46:08.646Z,101041.57
2023-02-13T15:48:36.577Z,101032.14
2023-02-13T15:51:04.738Z,101028.63
2023-02-13T15:53:32.872Z,101019.55
2023-02-13T15:56:03.059Z,101015.59
2023-02-13T15:58:34.171Z,101015.91
2023-02-13T16:01:06.876Z,101013.48
2023-02-13T16:03:35.546Z,101007.14
2023-02-13T16:06:05.331Z,101004.05
2023-02-13T16:08:36.405Z,101008.44
2023-02-13T16:11:30.210Z,100998.89
2023-02-13T16:14:00.894Z,100996.21
2023-02-13T16:16:31.501Z,100988.80
2023-02-13T16:18:59.665Z,100986.67
2023-02-13T16:21:31.230Z,100983.89
2023-02-13T16:24:01.728Z,100985.91
2023-02-13T16:26:31.526Z,100984.02
2023-02-13T16:28:59.430Z,100980.13
2023-02-13T16:31:27.750Z,100977.79
2023-02-13T16:33:56.044Z,100973.98
2023-02-13T16:36:29.053Z,100976.79
2023-02-13T16:38:58.429Z,100977.22
2023-02-13T16:41:29.186Z,100974.38
2023-02-13T16:43:57.848Z,100974.91
2023-02-13T16:46:36.500Z,100972.05
2023-02-13T16:49:10.989Z,100970.38
2023-02-13T16:51:40.004Z,100973.27
2023-02-13T16:54:10.757Z,100970.73
2023-02-13T16:56:45.678Z,100977.53
2023-02-13T16:59:38.926Z,100977.67
2023-02-13T17:02:14.441Z,100978.78
2023-02-13T17:04:53.781Z,100985.73
2023-02-13T17:07:28.448Z,100993.13
2023-02-13T17:09:59.503Z,101004.11
2023-02-13T17:12:31.980Z,101006.17
2023-02-13T17:15:00.246Z,101003.66
2023-02-13T17:17:29.943Z,100993.63
2023-02-13T17:19:58.972Z,100991.45
2023-02-13T17:22:35.767Z,100989.75
2023-02-13T17:25:09.365Z,100997.05
2023-02-13T17:27:37.872Z,100991.95
2023-02-13T17:30:06.603Z,100981.22
2023-02-13T17:32:34.803Z,100978.73
2023-02-13T17:35:04.600Z,100981.64
2023-02-13T17:37:33.066Z,100975.33
2023-02-13T17:40:01.018Z,100969.45
2023-02-13T17:42:29.716Z,100964.17
2023-02-13T17:45:01.043Z,100962.72
2023-02-13T17:47:30.595Z,100966.88
2023-02-13T17:50:08.519Z,100965.33
2023-02-13T17:52:38.902Z,100970.69
2023-02-13T17:55:08.480Z,100973.52
2023-02-13T17:57:36.684Z,100970.99
2023-02-13T18:00:05.466Z,100968.38
2023-02-13T18:02:42.638Z,100973.23
2023-02-13T18:05:10.720Z,100978.02
2023-02-13T18:07:42.793Z,100974.07
2023-02-13T18:10:20.557Z,100968.38
2023-02-13T18:12:48.892Z,100961.11
2023-02-13T18:15:17.114Z,100959.02
2023-02-13T18:17:46.717Z,100955.08
2023-02-13T18:20:16.736Z,100952.52
2023-02-13T18:22:44.828Z,100954.48
2023-02-13T18:25:13.080Z,100948.39
2023-02-13T18:27:41.080Z,100953.54
2023-02-13T18:30:13.208Z,100956.34
2023-02-13T18:32:41.512Z,100961.65
2023-02-13T18:35:09.770Z,100956.52
2023-02-13T18:37:39.203Z,100952.00
2023-02-13T18:40:09.313Z,100951.72
2023-02-13T18:42:38.974Z,100955.42
2023-02-13T18:45:07.164Z,100955.30
2023-02-13T18:47:35.267Z,100952.03
2023-02-13T18:50:03.299Z,100953.34
2023-02-13T18:52:32.736Z,100946.23
2023-02-13T18:55:01.126Z,100939.34
2023-02-13T18:57:29.285Z,100934.22
2023-02-13T18:59:57.336Z,100929.34
2023-02-13T19:02:25.473Z,100932.01
2023-02-13T19:04:53.802Z,100941.73
2023-02-13T19:07:22.670Z,100940.80
2023-02-13T19:09:50.576Z,100941.91
2023-02-13T19:12:18.537Z,100936.51
2023-02-13T19:14:47.818Z,100920.73
2023-02-13T19:17:16.270Z,100906.36
2023-02-13T19:19:48.882Z,100899.98
2023-02-13T19:22:19.355Z,100896.56
2023-02-13T19:24:47.702Z,100889.70
2023-02-13T19:27:15.664Z,100885.77
2023-02-13T19:29:43.634Z,100879.08
2023-02-13T19:32:15.157Z,100875.19
2023-02-13T19:34:43.673Z,100868.20
2023-02-13T19:37:13.673Z,100877.16
2023-02-13T19:39:41.661Z,100880.44
2023-02-13T19:42:09.807Z,100885.60
2023-02-13T19:44:40.851Z,100870.88
2023-02-13T19:47:11.136Z,100854.54
2023-02-13T19:49:39.238Z,100856.80
2023-02-13T19:52:07.178Z,100858.02
2023-02-13T19:54:36.330Z,100847.45
2023-02-13T19:57:07.517Z,100843.06
2023-02-13T19:59:55.240Z,100843.08
2023-02-13T20:02:23.224Z,100826.15
2023-02-13T20:04:51.844Z,100817.36
2023-02-13T20:07:20.441Z,100814.15
2023-02-13T20:09:50.603Z,100809.20
2023-02-13T20:12:18.495Z,100805.63
2023-02-13T20:14:46.420Z,100799.08
2023-02-13T20:17:14.376Z,100800.09
2023-02-13T20:19:42.222Z,100798.23
2023-02-13T20:22:10.308Z,100804.30
2023-02-13T20:24:38.328Z,100800.52
2023-02-13T20:27:06.361Z,100795.08
2023-02-13T20:29:38.132Z,100794.11
2023-02-13T20:32:06.567Z,100795.20
2023-02-13T20:34:44.193Z,100776.72
2023-02-13T20:37:23.428Z,100763.23
2023-02-13T20:39:51.872Z,100758.27
2023-02-13T20:42:20.820Z,100758.09
2023-02-13T20:44:51.487Z,100761.05
2023-02-13T20:47:19.530Z,100753.61
2023-02-13T20:49:47.913Z,100742.80
2023-02-13T20:52:16.425Z,100737.09
2023-02-13T20:54:44.426Z,100737.60
2023-02-13T20:57:15.539Z,100747.49
2023-02-13T20:59:45.136Z,100752.16
2023-02-13T21:02:13.702Z,100740.86
2023-02-13T21:04:43.745Z,100738.80
2023-02-13T21:07:12.212Z,100735.75
2023-02-13T21:09:41.465Z,100738.83
2023-02-13T21:12:10.336Z,100735.42
2023-02-13T21:14:40.898Z,100737.10
2023-02-13T21:17:09.860Z,100734.33
2023-02-13T21:19:38.435Z,100733.70
2023-02-13T21:22:12.869Z,100737.04
2023-02-13T21:24:42.860Z,100732.20
2023-02-13T21:27:17.794Z,100731.41
2023-02-13T21:29:45.870Z,100730.89
2023-02-13T21:32:14.038Z,100736.80
2023-02-13T21:34:43.367Z,100732.13
2023-02-13T21:37:14.833Z,100728.29
2023-02-13T21:39:42.703Z,100718.92
2023-02-13T21:42:10.619Z,100721.03
2023-02-13T21:44:41.293Z,100724.37
2023-02-13T21:47:09.325Z,100728.02
2023-02-13T21:49:40.933Z,100724.50
2023-02-13T21:52:08.952Z,100713.83
2023-02-13T21:54:42.567Z,100701.64
2023-02-13T21:57:10.722Z,100701.18
2023-02-13T21:59:39.679Z,100701.98
2023-02-13T22:02:09.273Z,100704.86
2023-02-13T22:04:38.316Z,100704.13
2023-02-13T22:07:06.112Z,100699.73
2023-02-13T22:09:36.343Z,100693.56
2023-02-13T22:12:07.269Z,100682.96
2023-02-13T22:14:35.149Z,100674.98
2023-02-13T22:17:03.337Z,100671.27
2023-02-13T22:19:33.838Z,100661.06
2023-02-13T22:22:01.762Z,100648.78
2023-02-13T22:24:29.821Z,100642.14
2023-02-13T22:29:40.710Z,100645.73
2023-02-13T22:32:09.258Z,100641.32
2023-02-13T22:34:37.328Z,100640.71
2023-02-13T22:37:06.510Z,100629.89
2023-02-13T22:39:34.465Z,100636.05
2023-02-13T22:42:02.283Z,100638.48
2023-02-13T22:44:30.449Z,100628.44
2023-02-13T22:46:59.712Z,100618.30
2023-02-13T22:49:27.613Z,100616.20
2023-02-13T22:51:58.223Z,100617.20
2023-02-13T22:54:26.942Z,100614.04
2023-02-13T22:56:56.180Z,100606.61
2023-02-13T22:59:24.010Z,100607.73
2023-02-13T23:01:52.001Z,100611.89
2023-02-13T23:04:19.936Z,100611.32
2023-02-13T23:06:48.059Z,100615.66
2023-02-13T23:09:16.360Z,100609.61
2023-02-13T23:12:02.800Z,100608.81
2023-02-13T23:14:31.606Z,100612.24
2023-02-13T23:17:18.642Z,100606.88
2023-02-13T23:19:47.819Z,100603.73
2023-02-13T23:22:16.439Z,100599.51
2023-02-13T23:24:44.397Z,100596.38
2023-02-13T23:27:13.052Z,100603.52
2023-02-13T23:29:41.024Z,100606.23
2023-02-13T23:32:09.084Z,100611.34
2023-02-13T23:34:37.399Z,100611.70
2023-02-13T23:37:05.378Z,100607.31
2023-02-13T23:39:33.227Z,100596.79
2023-02-13T23:42:01.646Z,100579.05
2023-02-13T23:44:30.075Z,100567.98
2023-02-13T23:46:58.116Z,100568.66
2023-02-13T23:49:26.102Z,100577.45
2023-02-13T23:51:54.112Z,100587.75
2023-02-13T23:54:26.202Z,100588.50
2023-02-13T23:56:54.768Z,100597.66
2023-02-13T23:59:23.590Z,100598.06
